You are listening to:
CYYZ Tower - Toronto, Ontario, Canada

CYYZ 190000Z 11004KT 15SM FEW250 18/13 A3026 RMK CI1 SLP248 DENSITY ALT 800FT

If stream does not start automatically press the play button